sensor_id;sensor_type;location;lat;lon;timestamp;P1;durP1;ratioP1;P2;durP2;ratioP2
23370;SDS011;11858;51.056;3.712;2023-06-14T00:01:50;18.05;;;16.95;;
23370;SDS011;11858;51.056;3.712;2023-06-14T00:04:16;17.75;;;16.65;;
23370;SDS011;11858;51.056;3.712;2023-06-14T00:06:42;18.20;;;17.00;;
23370;SDS011;11858;51.056;3.712;2023-06-14T00:09:10;18.17;;;17.00;;
23370;SDS011;11858;51.056;3.712;2023-06-14T00:11:38;18.27;;;17.08;;
23370;SDS011;11858;51.056;3.712;2023-06-14T00:14:05;17.52;;;16.42;;
23370;SDS011;11858;51.056;3.712;2023-06-14T00:16:30;17.40;;;16.30;;
23370;SDS011;11858;51.056;3.712;2023-06-14T00:18:58;17.80;;;16.70;;
23370;SDS011;11858;51.056;3.712;2023-06-14T00:21:24;18.02;;;16.92;;
23370;SDS011;11858;51.056;3.712;2023-06-14T00:23:50;17.98;;;16.88;;
23370;SDS011;11858;51.056;3.712;2023-06-14T00:26:15;18.38;;;17.17;;
23370;SDS011;11858;51.056;3.712;2023-06-14T00:28:41;17.58;;;16.48;;
23370;SDS011;11858;51.056;3.712;2023-06-14T00:31:06;17.83;;;16.73;;
23370;SDS011;11858;51.056;3.712;2023-06-14T00:33:32;18.00;;;16.90;;
23370;SDS011;11858;51.056;3.712;2023-06-14T00:35:58;18.20;;;17.10;;
23370;SDS011;11858;51.056;3.712;2023-06-14T00:38:24;18.77;;;17.58;;
23370;SDS011;11858;51.056;3.712;2023-06-14T00:40:49;17.95;;;16.85;;
23370;SDS011;11858;51.056;3.712;2023-06-14T00:43:15;18.40;;;17.20;;
23370;SDS011;11858;51.056;3.712;2023-06-14T00:45:41;18.05;;;16.95;;
23370;SDS011;11858;51.056;3.712;2023-06-14T00:48:06;18.67;;;17.48;;
23370;SDS011;11858;51.056;3.712;2023-06-14T00:50:34;17.75;;;16.65;;
23370;SDS011;11858;51.056;3.712;2023-06-14T00:53:01;17.98;;;16.88;;
23370;SDS011;11858;51.056;3.712;2023-06-14T00:55:28;18.45;;;17.25;;
23370;SDS011;11858;51.056;3.712;2023-06-14T00:57:54;19.42;;;18.23;;
23370;SDS011;11858;51.056;3.712;2023-06-14T01:00:20;18.20;;;17.10;;
23370;SDS011;11858;51.056;3.712;2023-06-14T01:02:47;18.17;;;17.08;;
23370;SDS011;11858;51.056;3.712;2023-06-14T01:05:12;18.33;;;17.15;;
23370;SDS011;11858;51.056;3.712;2023-06-14T01:10:23;18.10;;;17.00;;
23370;SDS011;11858;51.056;3.712;2023-06-14T01:13:16;17.90;;;16.80;;
23370;SDS011;11858;51.056;3.712;2023-06-14T01:15:51;17.90;;;16.80;;
23370;SDS011;11858;51.056;3.712;2023-06-14T01:18:19;17.95;;;16.85;;
23370;SDS011;11858;51.056;3.712;2023-06-14T01:20:46;18.58;;;17.38;;
23370;SDS011;11858;51.056;3.712;2023-06-14T01:23:19;18.17;;;17.07;;
23370;SDS011;11858;51.056;3.712;2023-06-14T01:28:12;19.05;;;17.75;;
23370;SDS011;11858;51.056;3.712;2023-06-14T01:30:41;17.50;;;16.40;;
23370;SDS011;11858;51.056;3.712;2023-06-14T01:33:13;18.20;;;17.10;;
23370;SDS011;11858;51.056;3.712;2023-06-14T01:35:43;18.10;;;17.00;;
23370;SDS011;11858;51.056;3.712;2023-06-14T01:38:10;17.60;;;16.50;;
23370;SDS011;11858;51.056;3.712;2023-06-14T01:40:42;18.00;;;16.90;;
23370;SDS011;11858;51.056;3.712;2023-06-14T01:43:09;17.02;;;16.02;;
23370;SDS011;11858;51.056;3.712;2023-06-14T01:45:38;18.08;;;16.98;;
23370;SDS011;11858;51.056;3.712;2023-06-14T01:48:06;18.08;;;16.98;;
23370;SDS011;11858;51.056;3.712;2023-06-14T01:50:32;18.42;;;17.25;;
23370;SDS011;11858;51.056;3.712;2023-06-14T01:52:58;18.35;;;17.15;;
23370;SDS011;11858;51.056;3.712;2023-06-14T01:55:24;17.95;;;16.85;;
23370;SDS011;11858;51.056;3.712;2023-06-14T01:57:50;18.60;;;17.40;;
23370;SDS011;11858;51.056;3.712;2023-06-14T02:00:17;17.63;;;16.52;;
23370;SDS011;11858;51.056;3.712;2023-06-14T02:02:43;18.20;;;17.00;;
23370;SDS011;11858;51.056;3.712;2023-06-14T02:05:09;19.75;;;18.42;;
23370;SDS011;11858;51.056;3.712;2023-06-14T02:07:35;18.42;;;17.23;;
23370;SDS011;11858;51.056;3.712;2023-06-14T02:10:01;18.40;;;17.20;;
23370;SDS011;11858;51.056;3.712;2023-06-14T02:12:27;17.63;;;16.52;;
23370;SDS011;11858;51.056;3.712;2023-06-14T02:14:53;18.20;;;17.05;;
23370;SDS011;11858;51.056;3.712;2023-06-14T02:17:19;18.80;;;17.60;;
23370;SDS011;11858;51.056;3.712;2023-06-14T02:19:45;18.52;;;17.33;;
23370;SDS011;11858;51.056;3.712;2023-06-14T02:22:11;18.70;;;17.50;;
23370;SDS011;11858;51.056;3.712;2023-06-14T02:24:37;20.40;;;19.00;;
23370;SDS011;11858;51.056;3.712;2023-06-14T02:27:03;18.70;;;17.50;;
23370;SDS011;11858;51.056;3.712;2023-06-14T02:29:28;19.00;;;17.80;;
23370;SDS011;11858;51.056;3.712;2023-06-14T02:31:54;18.77;;;17.58;;
23370;SDS011;11858;51.056;3.712;2023-06-14T02:34:20;18.60;;;17.40;;
23370;SDS011;11858;51.056;3.712;2023-06-14T02:36:46;18.52;;;17.33;;
23370;SDS011;11858;51.056;3.712;2023-06-14T02:39:13;18.40;;;17.20;;
23370;SDS011;11858;51.056;3.712;2023-06-14T02:41:38;18.35;;;17.15;;
23370;SDS011;11858;51.056;3.712;2023-06-14T02:44:04;18.35;;;17.15;;
23370;SDS011;11858;51.056;3.712;2023-06-14T02:46:31;19.27;;;18.08;;
23370;SDS011;11858;51.056;3.712;2023-06-14T02:48:56;18.58;;;17.38;;
23370;SDS011;11858;51.056;3.712;2023-06-14T02:51:22;18.27;;;17.10;;
23370;SDS011;11858;51.056;3.712;2023-06-14T02:53:48;18.95;;;17.75;;
23370;SDS011;11858;51.056;3.712;2023-06-14T02:56:13;17.63;;;16.52;;
23370;SDS011;11858;51.056;3.712;2023-06-14T02:58:39;18.27;;;17.10;;
23370;SDS011;11858;51.056;3.712;2023-06-14T03:01:05;18.02;;;16.92;;
23370;SDS011;11858;51.056;3.712;2023-06-14T03:03:32;17.95;;;16.85;;
23370;SDS011;11858;51.056;3.712;2023-06-14T03:05:58;17.85;;;16.75;;
23370;SDS011;11858;51.056;3.712;2023-06-14T03:08:29;18.58;;;17.38;;
23370;SDS011;11858;51.056;3.712;2023-06-14T03:10:56;17.70;;;16.60;;
23370;SDS011;11858;51.056;3.712;2023-06-14T03:13:22;19.23;;;18.02;;
23370;SDS011;11858;51.056;3.712;2023-06-14T03:15:48;17.80;;;16.70;;
23370;SDS011;11858;51.056;3.712;2023-06-14T03:18:15;17.85;;;16.75;;
23370;SDS011;11858;51.056;3.712;2023-06-14T03:20:41;18.60;;;17.40;;
23370;SDS011;11858;51.056;3.712;2023-06-14T03:23:10;19.02;;;17.83;;
23370;SDS011;11858;51.056;3.712;2023-06-14T03:25:36;18.98;;;17.77;;
23370;SDS011;11858;51.056;3.712;2023-06-14T03:28:03;18.02;;;16.92;;
23370;SDS011;11858;51.056;3.712;2023-06-14T03:30:30;17.20;;;16.20;;
23370;SDS011;11858;51.056;3.712;2023-06-14T03:32:56;16.88;;;15.88;;
23370;SDS011;11858;51.056;3.712;2023-06-14T03:35:22;16.70;;;15.70;;
23370;SDS011;11858;51.056;3.712;2023-06-14T03:37:49;16.63;;;15.63;;
23370;SDS011;11858;51.056;3.712;2023-06-14T03:40:15;18.05;;;16.85;;
23370;SDS011;11858;51.056;3.712;2023-06-14T03:42:43;16.75;;;15.75;;
23370;SDS011;11858;51.056;3.712;2023-06-14T03:45:08;16.80;;;15.80;;
23370;SDS011;11858;51.056;3.712;2023-06-14T03:47:35;17.08;;;16.08;;
23370;SDS011;11858;51.056;3.712;2023-06-14T03:50:03;16.75;;;15.75;;
23370;SDS011;11858;51.056;3.712;2023-06-14T03:52:30;16.80;;;15.80;;
23370;SDS011;11858;51.056;3.712;2023-06-14T03:54:56;16.92;;;15.93;;
23370;SDS011;11858;51.056;3.712;2023-06-14T03:57:23;17.17;;;16.17;;
23370;SDS011;11858;51.056;3.712;2023-06-14T03:59:48;17.13;;;16.13;;
23370;SDS011;11858;51.056;3.712;2023-06-14T04:02:14;17.27;;;16.27;;
23370;SDS011;11858;51.056;3.712;2023-06-14T04:04:41;18.08;;;16.98;;
23370;SDS011;11858;51.056;3.712;2023-06-14T04:07:10;16.73;;;15.73;;
23370;SDS011;11858;51.056;3.712;2023-06-14T04:09:37;17.08;;;16.08;;
23370;SDS011;11858;51.056;3.712;2023-06-14T04:12:03;17.00;;;16.00;;
23370;SDS011;11858;51.056;3.712;2023-06-14T04:14:30;16.30;;;15.40;;
23370;SDS011;11858;51.056;3.712;2023-06-14T04:16:57;16.38;;;15.45;;
23370;SDS011;11858;51.056;3.712;2023-06-14T04:19:23;16.83;;;15.82;;
23370;SDS011;11858;51.056;3.712;2023-06-14T04:21:49;16.50;;;15.55;;
23370;SDS011;11858;51.056;3.712;2023-06-14T04:24:15;17.38;;;16.38;;
23370;SDS011;11858;51.056;3.712;2023-06-14T04:26:41;17.00;;;16.00;;
23370;SDS011;11858;51.056;3.712;2023-06-14T04:29:13;16.63;;;15.63;;
23370;SDS011;11858;51.056;3.712;2023-06-14T04:31:41;16.10;;;15.20;;
23370;SDS011;11858;51.056;3.712;2023-06-14T04:34:07;16.05;;;15.15;;
23370;SDS011;11858;51.056;3.712;2023-06-14T04:36:33;15.75;;;14.85;;
23370;SDS011;11858;51.056;3.712;2023-06-14T04:39:01;19.42;;;18.25;;
23370;SDS011;11858;51.056;3.712;2023-06-14T04:41:28;16.27;;;15.35;;
23370;SDS011;11858;51.056;3.712;2023-06-14T04:43:59;17.05;;;15.98;;
23370;SDS011;11858;51.056;3.712;2023-06-14T04:46:26;16.35;;;15.45;;
23370;SDS011;11858;51.056;3.712;2023-06-14T04:48:53;16.30;;;15.38;;
23370;SDS011;11858;51.056;3.712;2023-06-14T04:51:19;16.58;;;15.57;;
23370;SDS011;11858;51.056;3.712;2023-06-14T04:53:47;16.02;;;15.13;;
23370;SDS011;11858;51.056;3.712;2023-06-14T04:56:14;15.88;;;14.98;;
23370;SDS011;11858;51.056;3.712;2023-06-14T04:58:41;16.42;;;15.48;;
23370;SDS011;11858;51.056;3.712;2023-06-14T05:01:08;16.00;;;15.10;;
23370;SDS011;11858;51.056;3.712;2023-06-14T05:03:34;16.27;;;15.38;;
23370;SDS011;11858;51.056;3.712;2023-06-14T05:06:00;16.17;;;15.27;;
23370;SDS011;11858;51.056;3.712;2023-06-14T05:08:25;15.40;;;14.50;;
23370;SDS011;11858;51.056;3.712;2023-06-14T05:10:51;17.05;;;16.05;;
23370;SDS011;11858;51.056;3.712;2023-06-14T05:13:18;20.70;;;19.23;;
23370;SDS011;11858;51.056;3.712;2023-06-14T05:15:43;16.10;;;15.20;;
23370;SDS011;11858;51.056;3.712;2023-06-14T05:18:09;15.60;;;14.70;;
23370;SDS011;11858;51.056;3.712;2023-06-14T05:20:35;15.80;;;14.90;;
23370;SDS011;11858;51.056;3.712;2023-06-14T05:23:02;16.33;;;15.43;;
23370;SDS011;11858;51.056;3.712;2023-06-14T05:25:28;16.20;;;15.30;;
23370;SDS011;11858;51.056;3.712;2023-06-14T05:27:54;17.73;;;16.63;;
23370;SDS011;11858;51.056;3.712;2023-06-14T05:30:19;18.10;;;17.00;;
23370;SDS011;11858;51.056;3.712;2023-06-14T05:32:45;17.08;;;16.08;;
23370;SDS011;11858;51.056;3.712;2023-06-14T05:35:11;16.35;;;15.43;;
23370;SDS011;11858;51.056;3.712;2023-06-14T05:37:37;16.73;;;15.73;;
23370;SDS011;11858;51.056;3.712;2023-06-14T05:40:03;16.38;;;15.48;;
23370;SDS011;11858;51.056;3.712;2023-06-14T05:42:31;15.98;;;14.98;;
23370;SDS011;11858;51.056;3.712;2023-06-14T05:44:57;15.05;;;14.25;;
23370;SDS011;11858;51.056;3.712;2023-06-14T05:47:22;16.65;;;15.65;;
23370;SDS011;11858;51.056;3.712;2023-06-14T05:49:48;15.32;;;14.43;;
23370;SDS011;11858;51.056;3.712;2023-06-14T05:52:14;15.65;;;14.75;;
23370;SDS011;11858;51.056;3.712;2023-06-14T05:54:39;15.45;;;14.55;;
23370;SDS011;11858;51.056;3.712;2023-06-14T05:57:06;16.13;;;15.13;;
23370;SDS011;11858;51.056;3.712;2023-06-14T05:59:32;16.48;;;15.50;;
23370;SDS011;11858;51.056;3.712;2023-06-14T06:01:57;21.80;;;18.50;;
23370;SDS011;11858;51.056;3.712;2023-06-14T06:04:23;16.20;;;15.23;;
23370;SDS011;11858;51.056;3.712;2023-06-14T06:06:49;14.98;;;14.18;;
23370;SDS011;11858;51.056;3.712;2023-06-14T06:09:15;14.65;;;13.85;;
23370;SDS011;11858;51.056;3.712;2023-06-14T06:11:40;14.88;;;14.05;;
23370;SDS011;11858;51.056;3.712;2023-06-14T06:14:06;14.70;;;13.90;;
23370;SDS011;11858;51.056;3.712;2023-06-14T06:16:32;15.20;;;14.30;;
23370;SDS011;11858;51.056;3.712;2023-06-14T06:18:58;15.05;;;14.25;;
23370;SDS011;11858;51.056;3.712;2023-06-14T06:21:24;15.55;;;14.65;;
23370;SDS011;11858;51.056;3.712;2023-06-14T06:23:50;14.30;;;13.50;;
23370;SDS011;11858;51.056;3.712;2023-06-14T06:26:16;14.73;;;13.93;;
23370;SDS011;11858;51.056;3.712;2023-06-14T06:28:41;15.50;;;14.60;;
23370;SDS011;11858;51.056;3.712;2023-06-14T06:31:07;16.15;;;15.18;;
23370;SDS011;11858;51.056;3.712;2023-06-14T06:33:33;15.00;;;14.15;;
23370;SDS011;11858;51.056;3.712;2023-06-14T06:35:58;14.38;;;13.57;;
23370;SDS011;11858;51.056;3.712;2023-06-14T06:38:24;17.33;;;16.25;;
23370;SDS011;11858;51.056;3.712;2023-06-14T06:40:50;15.15;;;14.25;;
23370;SDS011;11858;51.056;3.712;2023-06-14T06:43:16;15.43;;;14.52;;
23370;SDS011;11858;51.056;3.712;2023-06-14T06:45:42;15.40;;;14.50;;
23370;SDS011;11858;51.056;3.712;2023-06-14T06:48:08;14.95;;;14.15;;
23370;SDS011;11858;51.056;3.712;2023-06-14T06:50:36;15.35;;;14.45;;
23370;SDS011;11858;51.056;3.712;2023-06-14T06:53:02;21.33;;;19.88;;
23370;SDS011;11858;51.056;3.712;2023-06-14T06:55:28;16.00;;;15.05;;
23370;SDS011;11858;51.056;3.712;2023-06-14T06:57:54;15.00;;;14.10;;
23370;SDS011;11858;51.056;3.712;2023-06-14T07:00:20;14.57;;;13.77;;
23370;SDS011;11858;51.056;3.712;2023-06-14T07:02:46;16.67;;;15.30;;
23370;SDS011;11858;51.056;3.712;2023-06-14T07:05:12;15.77;;;14.80;;
23370;SDS011;11858;51.056;3.712;2023-06-14T07:07:37;15.25;;;14.35;;
23370;SDS011;11858;51.056;3.712;2023-06-14T07:10:03;16.05;;;15.15;;
23370;SDS011;11858;51.056;3.712;2023-06-14T07:12:30;16.38;;;15.38;;
23370;SDS011;11858;51.056;3.712;2023-06-14T07:14:58;15.35;;;14.45;;
23370;SDS011;11858;51.056;3.712;2023-06-14T07:17:25;15.57;;;14.68;;
23370;SDS011;11858;51.056;3.712;2023-06-14T07:19:51;16.10;;;15.20;;
23370;SDS011;11858;51.056;3.712;2023-06-14T07:22:16;16.15;;;15.25;;
23370;SDS011;11858;51.056;3.712;2023-06-14T07:24:42;15.75;;;14.85;;
23370;SDS011;11858;51.056;3.712;2023-06-14T07:27:08;15.85;;;14.82;;
23370;SDS011;11858;51.056;3.712;2023-06-14T07:29:35;15.82;;;14.93;;
23370;SDS011;11858;51.056;3.712;2023-06-14T07:32:01;15.38;;;14.48;;
23370;SDS011;11858;51.056;3.712;2023-06-14T07:34:27;15.68;;;14.77;;
23370;SDS011;11858;51.056;3.712;2023-06-14T07:36:52;17.73;;;16.42;;
23370;SDS011;11858;51.056;3.712;2023-06-14T07:39:19;15.50;;;14.60;;
23370;SDS011;11858;51.056;3.712;2023-06-14T07:41:45;16.40;;;15.40;;
23370;SDS011;11858;51.056;3.712;2023-06-14T07:44:11;16.00;;;15.10;;
23370;SDS011;11858;51.056;3.712;2023-06-14T07:46:37;16.13;;;15.23;;
23370;SDS011;11858;51.056;3.712;2023-06-14T07:49:03;15.93;;;15.02;;
23370;SDS011;11858;51.056;3.712;2023-06-14T07:51:28;15.70;;;14.80;;
23370;SDS011;11858;51.056;3.712;2023-06-14T07:53:54;15.50;;;14.60;;
23370;SDS011;11858;51.056;3.712;2023-06-14T07:56:20;15.60;;;14.70;;
23370;SDS011;11858;51.056;3.712;2023-06-14T07:58:46;18.73;;;15.30;;
23370;SDS011;11858;51.056;3.712;2023-06-14T08:01:12;15.85;;;14.95;;
23370;SDS011;11858;51.056;3.712;2023-06-14T08:03:37;14.73;;;13.90;;
23370;SDS011;11858;51.056;3.712;2023-06-14T08:06:03;15.27;;;14.38;;
23370;SDS011;11858;51.056;3.712;2023-06-14T08:08:29;15.73;;;14.77;;
23370;SDS011;11858;51.056;3.712;2023-06-14T08:10:55;14.80;;;14.00;;
23370;SDS011;11858;51.056;3.712;2023-06-14T08:13:21;14.85;;;13.98;;
23370;SDS011;11858;51.056;3.712;2023-06-14T08:15:47;15.20;;;14.30;;
23370;SDS011;11858;51.056;3.712;2023-06-14T08:18:12;14.05;;;13.15;;
23370;SDS011;11858;51.056;3.712;2023-06-14T08:20:38;14.23;;;13.43;;
23370;SDS011;11858;51.056;3.712;2023-06-14T08:23:04;15.60;;;14.50;;
23370;SDS011;11858;51.056;3.712;2023-06-14T08:25:30;14.13;;;13.32;;
23370;SDS011;11858;51.056;3.712;2023-06-14T08:27:56;14.50;;;13.70;;
23370;SDS011;11858;51.056;3.712;2023-06-14T08:30:22;15.23;;;14.38;;
23370;SDS011;11858;51.056;3.712;2023-06-14T08:32:48;14.43;;;13.63;;
23370;SDS011;11858;51.056;3.712;2023-06-14T08:35:13;14.70;;;13.90;;
23370;SDS011;11858;51.056;3.712;2023-06-14T08:37:40;14.38;;;13.57;;
23370;SDS011;11858;51.056;3.712;2023-06-14T08:40:21;14.63;;;13.82;;
23370;SDS011;11858;51.056;3.712;2023-06-14T08:42:51;14.00;;;13.20;;
23370;SDS011;11858;51.056;3.712;2023-06-14T08:45:19;13.73;;;12.93;;
23370;SDS011;11858;51.056;3.712;2023-06-14T08:47:46;13.48;;;12.77;;
23370;SDS011;11858;51.056;3.712;2023-06-14T08:50:18;14.70;;;13.85;;
23370;SDS011;11858;51.056;3.712;2023-06-14T08:52:46;14.15;;;13.35;;
23370;SDS011;11858;51.056;3.712;2023-06-14T08:55:18;13.90;;;13.10;;
23370;SDS011;11858;51.056;3.712;2023-06-14T08:57:45;14.88;;;13.60;;
23370;SDS011;11858;51.056;3.712;2023-06-14T09:00:12;14.70;;;13.80;;
23370;SDS011;11858;51.056;3.712;2023-06-14T09:02:39;14.02;;;13.23;;
23370;SDS011;11858;51.056;3.712;2023-06-14T09:05:11;15.75;;;14.75;;
23370;SDS011;11858;51.056;3.712;2023-06-14T09:07:43;14.80;;;13.90;;
23370;SDS011;11858;51.056;3.712;2023-06-14T09:10:10;14.50;;;13.70;;
23370;SDS011;11858;51.056;3.712;2023-06-14T09:12:37;14.90;;;14.00;;
23370;SDS011;11858;51.056;3.712;2023-06-14T09:15:04;14.25;;;13.45;;
23370;SDS011;11858;51.056;3.712;2023-06-14T09:17:37;16.00;;;15.00;;
23370;SDS011;11858;51.056;3.712;2023-06-14T09:20:04;15.52;;;14.63;;
23370;SDS011;11858;51.056;3.712;2023-06-14T09:22:36;15.43;;;14.30;;
23370;SDS011;11858;51.056;3.712;2023-06-14T09:25:03;14.30;;;13.50;;
23370;SDS011;11858;51.056;3.712;2023-06-14T09:27:30;15.18;;;14.27;;
23370;SDS011;11858;51.056;3.712;2023-06-14T09:29:56;14.88;;;13.98;;
23370;SDS011;11858;51.056;3.712;2023-06-14T09:32:22;16.00;;;15.00;;
23370;SDS011;11858;51.056;3.712;2023-06-14T09:34:48;15.35;;;14.45;;
23370;SDS011;11858;51.056;3.712;2023-06-14T09:37:25;14.70;;;13.85;;
23370;SDS011;11858;51.056;3.712;2023-06-14T09:39:55;14.73;;;13.93;;
23370;SDS011;11858;51.056;3.712;2023-06-14T09:42:21;14.73;;;13.93;;
23370;SDS011;11858;51.056;3.712;2023-06-14T09:44:50;15.83;;;14.63;;
23370;SDS011;11858;51.056;3.712;2023-06-14T09:47:17;14.55;;;13.75;;
23370;SDS011;11858;51.056;3.712;2023-06-14T09:49:43;15.43;;;14.52;;
23370;SDS011;11858;51.056;3.712;2023-06-14T09:52:18;16.33;;;15.32;;
23370;SDS011;11858;51.056;3.712;2023-06-14T09:54:45;14.60;;;13.80;;
23370;SDS011;11858;51.056;3.712;2023-06-14T09:57:22;15.13;;;14.23;;
23370;SDS011;11858;51.056;3.712;2023-06-14T09:59:48;14.50;;;13.70;;
23370;SDS011;11858;51.056;3.712;2023-06-14T10:02:25;14.23;;;13.43;;
23370;SDS011;11858;51.056;3.712;2023-06-14T10:05:07;14.68;;;13.88;;
23370;SDS011;11858;51.056;3.712;2023-06-14T10:07:40;15.38;;;14.48;;
23370;SDS011;11858;51.056;3.712;2023-06-14T10:10:09;15.68;;;14.50;;
23370;SDS011;11858;51.056;3.712;2023-06-14T10:12:35;15.48;;;14.57;;
23370;SDS011;11858;51.056;3.712;2023-06-14T10:15:01;15.55;;;14.65;;
23370;SDS011;11858;51.056;3.712;2023-06-14T10:17:39;15.32;;;14.43;;
23370;SDS011;11858;51.056;3.712;2023-06-14T10:21:00;15.27;;;14.38;;
23370;SDS011;11858;51.056;3.712;2023-06-14T10:23:17;15.68;;;14.77;;
23370;SDS011;11858;51.056;3.712;2023-06-14T10:25:49;15.25;;;14.35;;
23370;SDS011;11858;51.056;3.712;2023-06-14T10:28:16;16.35;;;15.38;;
23370;SDS011;11858;51.056;3.712;2023-06-14T10:33:31;15.88;;;14.88;;
23370;SDS011;11858;51.056;3.712;2023-06-14T10:36:24;15.30;;;14.40;;
23370;SDS011;11858;51.056;3.712;2023-06-14T10:39:10;15.40;;;14.50;;
23370;SDS011;11858;51.056;3.712;2023-06-14T10:41:40;15.50;;;14.60;;
23370;SDS011;11858;51.056;3.712;2023-06-14T10:46:38;16.02;;;15.13;;
23370;SDS011;11858;51.056;3.712;2023-06-14T10:49:18;16.30;;;15.30;;
23370;SDS011;11858;51.056;3.712;2023-06-14T10:51:45;15.95;;;15.05;;
23370;SDS011;11858;51.056;3.712;2023-06-14T10:54:15;16.13;;;15.18;;
23370;SDS011;11858;51.056;3.712;2023-06-14T10:56:48;15.55;;;14.65;;
23370;SDS011;11858;51.056;3.712;2023-06-14T10:59:16;16.23;;;15.07;;
23370;SDS011;11858;51.056;3.712;2023-06-14T11:04:17;15.75;;;14.85;;
23370;SDS011;11858;51.056;3.712;2023-06-14T11:06:46;15.98;;;15.07;;
23370;SDS011;11858;51.056;3.712;2023-06-14T11:12:06;18.27;;;16.92;;
23370;SDS011;11858;51.056;3.712;2023-06-14T11:14:35;16.40;;;15.40;;
23370;SDS011;11858;51.056;3.712;2023-06-14T11:17:01;16.75;;;15.68;;
23370;SDS011;11858;51.056;3.712;2023-06-14T11:19:27;15.95;;;15.05;;
23370;SDS011;11858;51.056;3.712;2023-06-14T11:21:54;15.70;;;14.80;;
23370;SDS011;11858;51.056;3.712;2023-06-14T11:24:20;16.05;;;15.10;;
23370;SDS011;11858;51.056;3.712;2023-06-14T11:26:46;16.23;;;15.25;;
23370;SDS011;11858;51.056;3.712;2023-06-14T11:29:14;17.30;;;16.20;;
23370;SDS011;11858;51.056;3.712;2023-06-14T11:31:44;18.50;;;16.98;;
23370;SDS011;11858;51.056;3.712;2023-06-14T11:34:11;16.50;;;15.57;;
23370;SDS011;11858;51.056;3.712;2023-06-14T11:36:38;15.68;;;14.77;;
23370;SDS011;11858;51.056;3.712;2023-06-14T11:39:05;15.73;;;14.82;;
23370;SDS011;11858;51.056;3.712;2023-06-14T11:41:42;16.90;;;15.90;;
23370;SDS011;11858;51.056;3.712;2023-06-14T11:44:08;17.20;;;16.00;;
23370;SDS011;11858;51.056;3.712;2023-06-14T11:46:34;15.57;;;14.68;;
23370;SDS011;11858;51.056;3.712;2023-06-14T11:49:01;16.05;;;15.10;;
23370;SDS011;11858;51.056;3.712;2023-06-14T11:51:32;15.43;;;14.52;;
23370;SDS011;11858;51.056;3.712;2023-06-14T11:53:59;16.00;;;15.10;;
23370;SDS011;11858;51.056;3.712;2023-06-14T11:56:29;15.65;;;14.75;;
23370;SDS011;11858;51.056;3.712;2023-06-14T11:58:56;17.48;;;15.18;;
23370;SDS011;11858;51.056;3.712;2023-06-14T12:01:22;15.75;;;14.85;;
23370;SDS011;11858;51.056;3.712;2023-06-14T12:03:49;15.40;;;14.50;;
23370;SDS011;11858;51.056;3.712;2023-06-14T12:06:15;16.80;;;15.75;;
23370;SDS011;11858;51.056;3.712;2023-06-14T12:08:43;15.43;;;14.52;;
23370;SDS011;11858;51.056;3.712;2023-06-14T12:11:11;15.23;;;14.32;;
23370;SDS011;11858;51.056;3.712;2023-06-14T12:13:41;16.65;;;15.55;;
23370;SDS011;11858;51.056;3.712;2023-06-14T12:16:08;15.40;;;14.50;;
23370;SDS011;11858;51.056;3.712;2023-06-14T12:18:38;16.00;;;15.10;;
23370;SDS011;11858;51.056;3.712;2023-06-14T12:21:06;18.40;;;17.20;;
23370;SDS011;11858;51.056;3.712;2023-06-14T12:23:39;17.05;;;15.95;;
23370;SDS011;11858;51.056;3.712;2023-06-14T12:26:07;16.50;;;15.50;;
23370;SDS011;11858;51.056;3.712;2023-06-14T12:28:32;16.88;;;15.82;;
23370;SDS011;11858;51.056;3.712;2023-06-14T12:30:58;17.42;;;16.27;;
23370;SDS011;11858;51.056;3.712;2023-06-14T12:33:24;16.05;;;15.15;;
23370;SDS011;11858;51.056;3.712;2023-06-14T12:35:50;17.27;;;16.17;;
23370;SDS011;11858;51.056;3.712;2023-06-14T12:38:19;16.52;;;15.52;;
23370;SDS011;11858;51.056;3.712;2023-06-14T12:40:46;17.15;;;16.05;;
23370;SDS011;11858;51.056;3.712;2023-06-14T12:43:11;16.55;;;15.55;;
23370;SDS011;11858;51.056;3.712;2023-06-14T12:45:37;16.90;;;15.90;;
23370;SDS011;11858;51.056;3.712;2023-06-14T12:48:03;17.00;;;15.90;;
23370;SDS011;11858;51.056;3.712;2023-06-14T12:50:29;16.13;;;15.13;;
23370;SDS011;11858;51.056;3.712;2023-06-14T12:52:55;14.90;;;14.00;;
23370;SDS011;11858;51.056;3.712;2023-06-14T12:55:20;17.00;;;15.90;;
23370;SDS011;11858;51.056;3.712;2023-06-14T12:57:46;15.95;;;14.95;;
23370;SDS011;11858;51.056;3.712;2023-06-14T13:00:14;16.60;;;15.60;;
23370;SDS011;11858;51.056;3.712;2023-06-14T13:02:40;15.90;;;14.90;;
23370;SDS011;11858;51.056;3.712;2023-06-14T13:05:06;15.27;;;14.38;;
23370;SDS011;11858;51.056;3.712;2023-06-14T13:07:32;31.13;;;16.73;;
23370;SDS011;11858;51.056;3.712;2023-06-14T13:09:57;16.15;;;15.15;;
23370;SDS011;11858;51.056;3.712;2023-06-14T13:12:23;15.43;;;14.52;;
23370;SDS011;11858;51.056;3.712;2023-06-14T13:14:49;15.68;;;14.77;;
23370;SDS011;11858;51.056;3.712;2023-06-14T13:17:15;16.38;;;15.38;;
23370;SDS011;11858;51.056;3.712;2023-06-14T13:19:40;15.82;;;14.82;;
23370;SDS011;11858;51.056;3.712;2023-06-14T13:22:07;15.27;;;14.38;;
23370;SDS011;11858;51.056;3.712;2023-06-14T13:24:33;16.05;;;15.15;;
23370;SDS011;11858;51.056;3.712;2023-06-14T13:26:59;16.25;;;15.35;;
23370;SDS011;11858;51.056;3.712;2023-06-14T13:29:25;15.45;;;14.55;;
23370;SDS011;11858;51.056;3.712;2023-06-14T13:31:52;16.25;;;15.25;;
23370;SDS011;11858;51.056;3.712;2023-06-14T13:34:18;16.10;;;15.10;;
23370;SDS011;11858;51.056;3.712;2023-06-14T13:36:45;15.60;;;14.70;;
23370;SDS011;11858;51.056;3.712;2023-06-14T13:39:16;15.48;;;14.48;;
23370;SDS011;11858;51.056;3.712;2023-06-14T13:41:41;15.45;;;14.55;;
23370;SDS011;11858;51.056;3.712;2023-06-14T13:44:07;16.42;;;15.43;;
23370;SDS011;11858;51.056;3.712;2023-06-14T13:46:33;16.40;;;15.30;;
23370;SDS011;11858;51.056;3.712;2023-06-14T13:48:58;15.88;;;14.98;;
23370;SDS011;11858;51.056;3.712;2023-06-14T13:51:26;15.95;;;15.05;;
23370;SDS011;11858;51.056;3.712;2023-06-14T13:53:52;15.57;;;14.68;;
23370;SDS011;11858;51.056;3.712;2023-06-14T13:56:18;16.02;;;15.13;;
23370;SDS011;11858;51.056;3.712;2023-06-14T13:58:44;16.33;;;15.32;;
23370;SDS011;11858;51.056;3.712;2023-06-14T14:01:10;17.02;;;16.02;;
23370;SDS011;11858;51.056;3.712;2023-06-14T14:03:37;23.30;;;15.63;;
23370;SDS011;11858;51.056;3.712;2023-06-14T14:06:03;15.55;;;14.65;;
23370;SDS011;11858;51.056;3.712;2023-06-14T14:08:29;17.02;;;16.02;;
23370;SDS011;11858;51.056;3.712;2023-06-14T14:10:55;17.20;;;16.20;;
23370;SDS011;11858;51.056;3.712;2023-06-14T14:13:21;17.70;;;16.70;;
23370;SDS011;11858;51.056;3.712;2023-06-14T14:15:47;18.20;;;17.10;;
23370;SDS011;11858;51.056;3.712;2023-06-14T14:18:14;18.98;;;17.42;;
23370;SDS011;11858;51.056;3.712;2023-06-14T14:20:40;19.00;;;17.70;;
23370;SDS011;11858;51.056;3.712;2023-06-14T14:23:06;17.77;;;16.67;;
23370;SDS011;11858;51.056;3.712;2023-06-14T14:25:31;17.48;;;16.48;;
23370;SDS011;11858;51.056;3.712;2023-06-14T14:27:57;18.30;;;17.20;;
23370;SDS011;11858;51.056;3.712;2023-06-14T14:30:23;18.25;;;17.15;;
23370;SDS011;11858;51.056;3.712;2023-06-14T14:32:51;18.25;;;17.15;;
23370;SDS011;11858;51.056;3.712;2023-06-14T14:35:17;17.83;;;16.83;;
23370;SDS011;11858;51.056;3.712;2023-06-14T14:37:43;17.30;;;16.30;;